Impacts METAR Board INFO
IDs:

KCLE - Cleveland/Hopkins In, OH, US

Updated at: 2254 UTC 21 Feb 2018
Potential Impact None Slight Moderate High
Time21/10Z 21/11Z 21/12Z 21/13Z 21/14Z 21/15Z 21/16Z 21/17Z 21/18Z 21/19Z 21/20Z 21/21Z 21/22Z
VIS 8 1.75 2.5 2.5 2.5 8 10 10 10 10
CIG 5 4 5 4 4 6 5 6 8 8
CoverOVCOVCOVCOVCOVCOVCOVCOVCOVCOVC
FltCatIFRLIFRIFRLIFRLIFRIFRIFRIFRIFRIFR
WX-RA---RA-RA BR-RA BR---RA-RA----
WDir310340340350101020202030
WSpd 8 9 10 11 12 14 10 11 11 11
WGst -- -- -- -- -- -- -- -- -- --
Raw hourly METARs



KCLE 211251Z 31008KT 8SM -RA OVC005 13/12 A3024 RMK AO2 SLP238 P0008 T01330122 $
KCLE 211400Z 34009KT 1 3/4SM OVC004 08/07 A3031 RMK AO2 SFC VIS 10 PRESRR T00780067
KCLE 211453Z 34010KT 2 1/2SM -RA OVC005 07/06 A3035 RMK AO2 SFC VIS 9 P0000 T00720061
KCLE 211551Z 35011KT 2 1/2SM -RA BR OVC004 05/04 A3039 RMK AO2 SFC VIS 4 SLP291 P0003 T00500044
KCLE 211651Z 01012KT 2 1/2SM -RA BR OVC004 04/03 A3044 RMK AO2 SFC VIS 3 RAE10B34 SLP310 P0000 T00440033
KCLE 211751Z 01014KT 8SM OVC006 04/03 A3047 RMK AO2 RAE10B12E28 SLP320 P0001 60021 T00390028 10139 20039 50028
KCLE 211851Z 02010KT 10SM -RA OVC005 03/02 A3048 RMK AO2 RAB11 SLP324 P0003 T00330022
KCLE 211951Z 02011KT 10SM -RA OVC006 03/02 A3049 RMK AO2 RAE16B41 SLP325 P0000 T00330022
KCLE 212051Z 02011KT 10SM OVC008 03/01 A3052 RMK AO2 SLP338 RAE24 P0001 60004 T00280011 53017
KCLE 212151Z 03011KT 10SM OVC008 02/01 A3055 RMK AO2 SLP348 T00220011